createdAt,value
2023-06-11T00:02:23.085Z,16.16
2023-06-11T00:04:55.774Z,16.13
2023-06-11T00:07:30.180Z,16.10
2023-06-11T00:10:14.200Z,16.10
2023-06-11T00:12:43.361Z,16.09
2023-06-11T00:15:15.724Z,16.08
2023-06-11T00:17:50.335Z,16.09
2023-06-11T00:20:19.574Z,16.06
2023-06-11T00:22:54.424Z,16.03
2023-06-11T00:25:23.076Z,16.01
2023-06-11T00:27:54.936Z,15.95
2023-06-11T00:30:54.697Z,15.82
2023-06-11T00:33:32.990Z,15.70
2023-06-11T00:36:05.281Z,15.64
2023-06-11T00:38:42.516Z,15.59
2023-06-11T00:41:26.088Z,15.51
2023-06-11T01:31:30.147Z,14.43
2023-06-11T01:34:02.129Z,14.33
2023-06-11T01:36:52.494Z,14.28
2023-06-11T01:39:21.699Z,14.24
2023-06-11T01:42:12.682Z,14.19
2023-06-11T01:44:43.627Z,14.19
2023-06-11T01:47:11.548Z,14.15
2023-06-11T01:49:43.457Z,14.11
2023-06-11T01:52:28.951Z,14.07
2023-06-11T01:54:56.592Z,14.04
2023-06-11T01:57:24.007Z,14.00
2023-06-11T01:59:51.407Z,13.97
2023-06-11T02:02:18.734Z,13.90
2023-06-11T02:04:46.795Z,13.85
2023-06-11T02:07:16.792Z,13.83
2023-06-11T02:09:44.781Z,13.79
2023-06-11T02:12:17.925Z,13.75
2023-06-11T02:14:50.564Z,13.74
2023-06-11T02:17:17.779Z,13.71
2023-06-11T02:19:49.964Z,13.67
2023-06-11T02:22:40.037Z,13.69
2023-06-11T02:25:14.056Z,13.67
2023-06-11T02:27:42.912Z,13.62
2023-06-11T02:30:11.989Z,13.57
2023-06-11T02:32:40.736Z,13.57
2023-06-11T02:35:13.368Z,13.57
2023-06-11T02:37:42.682Z,13.58
2023-06-11T02:40:15.005Z,13.61
2023-06-11T02:42:42.493Z,13.58
2023-06-11T02:45:16.630Z,13.60
2023-06-11T02:47:45.743Z,13.56
2023-06-11T02:50:13.784Z,13.53
2023-06-11T02:52:42.303Z,13.52
2023-06-11T02:55:12.569Z,13.53
2023-06-11T02:57:47.009Z,13.54
2023-06-11T03:00:20.301Z,13.53
2023-06-11T03:02:56.996Z,13.55
2023-06-11T03:05:39.120Z,13.59
2023-06-11T03:08:09.085Z,13.64
2023-06-11T03:10:39.692Z,13.69
2023-06-11T03:13:07.885Z,13.72
2023-06-11T03:15:41.031Z,13.72
2023-06-11T03:18:36.622Z,13.69
2023-06-11T03:21:07.974Z,13.69
2023-06-11T03:23:35.290Z,13.73
2023-06-11T03:26:04.530Z,13.78
2023-06-11T03:28:35.515Z,13.81
2023-06-11T03:31:19.089Z,13.85
2023-06-11T03:33:46.956Z,13.89
2023-06-11T03:36:17.024Z,13.92
2023-06-11T03:38:49.778Z,13.91
2023-06-11T03:41:18.724Z,13.98
2023-06-11T03:43:49.642Z,14.00
2023-06-11T03:46:55.643Z,14.01
2023-06-11T03:49:26.308Z,14.08
2023-06-11T03:51:53.901Z,14.12
2023-06-11T03:54:28.498Z,14.13
2023-06-11T03:56:56.140Z,14.17
2023-06-11T03:59:23.292Z,14.15
2023-06-11T04:01:56.688Z,14.19
2023-06-11T04:04:32.439Z,14.22
2023-06-11T04:07:05.917Z,14.24
2023-06-11T04:09:34.588Z,14.30
2023-06-11T04:12:04.170Z,14.30
2023-06-11T04:14:32.744Z,14.28
2023-06-11T04:17:01.528Z,14.32
2023-06-11T04:19:38.254Z,14.30
2023-06-11T04:22:06.857Z,14.36
2023-06-11T04:24:35.519Z,14.37
2023-06-11T04:27:04.211Z,14.41
2023-06-11T04:29:31.544Z,14.47
2023-06-11T04:32:03.672Z,14.53
2023-06-11T04:34:31.737Z,14.58
2023-06-11T04:37:00.869Z,14.64
2023-06-11T04:39:28.926Z,14.71
2023-06-11T04:41:56.199Z,14.72
2023-06-11T04:44:24.350Z,14.80
2023-06-11T04:46:59.873Z,14.85
2023-06-11T04:49:29.545Z,14.89
2023-06-11T04:51:58.620Z,15.00
2023-06-11T04:54:27.577Z,15.06
2023-06-11T04:56:55.008Z,15.18
2023-06-11T04:59:21.735Z,15.26
2023-06-11T05:01:50.913Z,15.33
2023-06-11T05:04:28.627Z,15.37
2023-06-11T05:06:58.401Z,15.50
2023-06-11T05:09:26.874Z,15.59
2023-06-11T05:11:54.881Z,15.71
2023-06-11T05:14:22.287Z,15.79
2023-06-11T05:16:51.130Z,15.87
2023-06-11T05:19:18.965Z,15.98
2023-06-11T05:21:47.455Z,16.11
2023-06-11T05:24:20.514Z,16.21
2023-06-11T05:26:48.630Z,16.29
2023-06-11T05:29:16.032Z,16.40
2023-06-11T05:31:43.249Z,16.48
2023-06-11T05:34:10.730Z,16.59
2023-06-11T05:36:37.829Z,16.69
2023-06-11T05:39:04.715Z,16.77
2023-06-11T05:41:32.038Z,16.87
2023-06-11T05:43:59.285Z,16.96
2023-06-11T05:46:27.181Z,17.06
2023-06-11T05:48:54.014Z,17.17
2023-06-11T05:51:21.483Z,17.25
2023-06-11T05:53:48.557Z,17.35
2023-06-11T05:56:16.359Z,17.49
2023-06-11T05:59:15.675Z,17.63
2023-06-11T06:01:45.646Z,17.80
2023-06-11T06:04:14.713Z,17.93
2023-06-11T06:06:43.449Z,18.02
2023-06-11T06:09:10.613Z,18.13
2023-06-11T06:11:37.654Z,18.25
2023-06-11T06:14:05.475Z,18.37
2023-06-11T06:16:33.252Z,18.45
2023-06-11T06:19:01.836Z,18.55
2023-06-11T06:21:28.920Z,18.68
2023-06-11T06:23:55.778Z,18.79
2023-06-11T06:26:23.832Z,18.91
2023-06-11T06:28:53.138Z,19.02
2023-06-11T06:31:21.072Z,19.12
2023-06-11T06:33:48.135Z,19.24
2023-06-11T06:36:23.561Z,19.36
2023-06-11T06:38:55.063Z,19.46
2023-06-11T06:41:22.042Z,19.58
2023-06-11T06:43:49.431Z,19.70
2023-06-11T06:46:22.416Z,19.81
2023-06-11T06:48:51.613Z,19.91
2023-06-11T06:51:20.855Z,20.00
2023-06-11T06:53:48.525Z,20.11
2023-06-11T06:56:55.953Z,20.23
2023-06-11T06:59:23.553Z,20.36
2023-06-11T07:01:50.489Z,20.48
2023-06-11T07:04:25.884Z,20.57
2023-06-11T07:06:52.658Z,20.66
2023-06-11T07:09:20.180Z,20.75
2023-06-11T07:11:49.025Z,20.84
2023-06-11T07:14:16.129Z,20.89
2023-06-11T07:16:49.880Z,20.95
2023-06-11T07:19:21.098Z,21.03
2023-06-11T07:21:47.989Z,21.13
2023-06-11T07:24:15.350Z,21.23
2023-06-11T07:26:51.120Z,21.31
2023-06-11T07:29:18.138Z,21.40
2023-06-11T07:31:45.960Z,21.49
2023-06-11T07:34:13.607Z,21.57
2023-06-11T07:36:47.331Z,21.61
2023-06-11T07:39:14.932Z,21.68
2023-06-11T07:41:41.942Z,21.76
2023-06-11T07:44:08.963Z,21.87
2023-06-11T07:46:43.833Z,21.95
2023-06-11T07:49:11.433Z,22.01
2023-06-11T07:51:38.339Z,22.01
2023-06-11T07:54:07.424Z,22.03
2023-06-11T07:56:34.453Z,22.05
2023-06-11T07:59:01.328Z,22.09
2023-06-11T08:01:28.427Z,22.18
2023-06-11T08:03:55.531Z,22.23
2023-06-11T08:06:23.018Z,22.23
2023-06-11T08:09:07.724Z,22.25
2023-06-11T08:11:34.563Z,22.32
2023-06-11T08:14:01.285Z,22.38
2023-06-11T08:16:37.083Z,22.36
2023-06-11T08:21:47.375Z,22.36
2023-06-11T08:24:14.450Z,22.42
2023-06-11T08:26:41.293Z,22.49
2023-06-11T08:29:08.688Z,22.55
2023-06-11T08:31:35.768Z,22.63
2023-06-11T08:34:02.747Z,22.67
2023-06-11T08:36:29.894Z,22.82
2023-06-11T08:38:56.968Z,22.95
2023-06-11T08:41:23.961Z,23.08
2023-06-11T08:43:50.935Z,23.13
2023-06-11T08:46:31.894Z,23.19
2023-06-11T08:49:03.256Z,23.29
2023-06-11T08:51:36.144Z,23.37
2023-06-11T08:54:06.074Z,23.48
2023-06-11T08:56:34.277Z,23.61
2023-06-11T08:59:03.701Z,23.74
2023-06-11T09:01:40.540Z,23.80
2023-06-11T09:04:22.087Z,23.88
2023-06-11T09:06:57.654Z,24.01
2023-06-11T09:09:28.775Z,24.16
2023-06-11T09:11:59.137Z,24.28
2023-06-11T09:14:35.316Z,24.35
2023-06-11T09:17:02.217Z,24.49
2023-06-11T09:19:38.236Z,24.62
2023-06-11T09:22:05.377Z,24.72
2023-06-11T09:24:46.302Z,24.86
2023-06-11T09:27:19.864Z,25.00
2023-06-11T09:29:46.846Z,25.14
2023-06-11T09:32:32.768Z,25.27
2023-06-11T09:35:02.927Z,25.43
2023-06-11T09:37:29.847Z,25.57
2023-06-11T09:39:56.755Z,25.55
2023-06-11T09:42:27.299Z,25.62
2023-06-11T09:44:59.028Z,25.70
2023-06-11T09:47:29.035Z,25.70
2023-06-11T09:50:01.545Z,25.68
2023-06-11T09:52:33.102Z,25.77
2023-06-11T09:55:05.207Z,25.90
2023-06-11T09:57:33.077Z,26.04
2023-06-11T10:00:01.045Z,26.19
2023-06-11T10:02:50.745Z,26.31
2023-06-11T10:05:18.667Z,26.49
2023-06-11T10:07:49.566Z,26.61
2023-06-11T10:10:21.839Z,26.69
2023-06-11T10:12:53.306Z,26.89
2023-06-11T10:15:43.837Z,27.09
2023-06-11T10:18:27.197Z,27.28
2023-06-11T10:20:55.823Z,27.45
2023-06-11T10:23:22.726Z,27.46
2023-06-11T10:25:55.535Z,27.49
2023-06-11T10:28:42.897Z,27.49
2023-06-11T10:31:29.424Z,27.48
2023-06-11T10:34:08.918Z,27.45
2023-06-11T10:36:42.464Z,27.47
2023-06-11T10:39:23.420Z,27.58
2023-06-11T10:42:03.057Z,27.79
2023-06-11T10:44:31.632Z,27.81
2023-06-11T10:47:01.303Z,27.87
2023-06-11T10:49:32.363Z,27.90
2023-06-11T10:52:01.989Z,27.95
2023-06-11T10:54:34.815Z,27.91
2023-06-11T10:57:03.308Z,28.04
2023-06-11T10:59:33.183Z,28.21
2023-06-11T11:02:03.772Z,28.27
2023-06-11T11:04:31.770Z,28.38
2023-06-11T11:07:10.655Z,28.51
2023-06-11T11:09:43.727Z,28.74
2023-06-11T11:12:15.654Z,28.92
2023-06-11T11:14:50.822Z,29.01
2023-06-11T11:17:22.783Z,28.68
2023-06-11T11:19:51.533Z,28.50
2023-06-11T11:22:38.441Z,28.47
2023-06-11T11:25:15.890Z,28.43
2023-06-11T11:27:44.316Z,28.43
2023-06-11T11:30:13.883Z,28.26
2023-06-11T11:32:41.486Z,28.10
2023-06-11T11:35:09.015Z,27.99
2023-06-11T11:37:38.401Z,28.05
2023-06-11T11:40:09.771Z,28.21
2023-06-11T11:42:57.484Z,28.20
2023-06-11T11:45:35.215Z,28.13
2023-06-11T11:48:14.718Z,28.14
2023-06-11T11:50:48.487Z,28.22
2023-06-11T11:53:18.766Z,28.18
2023-06-11T11:56:04.419Z,28.13
2023-06-11T11:58:41.184Z,27.94
2023-06-11T12:01:22.446Z,27.84
2023-06-11T12:04:01.389Z,27.75
2023-06-11T12:06:34.558Z,27.66
2023-06-11T12:09:03.607Z,27.58
2023-06-11T12:11:34.433Z,27.58
2023-06-11T12:14:03.570Z,27.52
2023-06-11T12:16:33.523Z,27.56
2023-06-11T12:19:18.756Z,27.66
2023-06-11T12:22:06.101Z,27.69
2023-06-11T12:24:42.173Z,27.51
2023-06-11T12:27:12.973Z,27.71
2023-06-11T12:29:41.400Z,27.73
2023-06-11T12:32:14.909Z,27.83
2023-06-11T12:34:50.021Z,27.95
2023-06-11T12:37:17.522Z,28.06
2023-06-11T12:39:45.550Z,28.23
2023-06-11T12:42:24.489Z,28.34
2023-06-11T12:45:07.050Z,28.32
2023-06-11T12:47:37.095Z,28.21
2023-06-11T12:50:04.202Z,28.14
2023-06-11T12:52:31.652Z,28.14
2023-06-11T12:54:58.426Z,28.20
2023-06-11T12:57:25.368Z,28.15
2023-06-11T12:59:52.204Z,28.02
2023-06-11T13:02:19.775Z,28.45
2023-06-11T13:04:46.931Z,28.66
2023-06-11T13:07:14.537Z,28.74
2023-06-11T13:09:41.416Z,28.98
2023-06-11T13:12:08.735Z,29.20
2023-06-11T13:14:35.735Z,29.41
2023-06-11T13:17:02.956Z,29.33
2023-06-11T13:19:29.899Z,29.29
2023-06-11T13:21:57.094Z,28.71
2023-06-11T13:24:24.857Z,28.66
2023-06-11T13:26:52.926Z,28.64
2023-06-11T13:29:23.066Z,28.58
2023-06-11T13:31:51.105Z,28.72
2023-06-11T13:34:18.624Z,28.42
2023-06-11T13:36:46.229Z,28.46
2023-06-11T13:39:13.361Z,28.25
2023-06-11T13:41:40.956Z,27.69
2023-06-11T13:44:09.061Z,27.17
2023-06-11T13:46:36.389Z,26.72
2023-06-11T13:49:03.613Z,26.16
2023-06-11T13:51:32.065Z,25.38
2023-06-11T13:53:59.359Z,25.31
2023-06-11T13:56:27.231Z,25.11
2023-06-11T13:58:54.057Z,24.70
2023-06-11T14:04:02.388Z,23.92
2023-06-11T14:06:33.281Z,23.72
2023-06-11T14:09:01.889Z,23.57
2023-06-11T14:11:29.075Z,23.40
2023-06-11T14:13:58.474Z,23.29
2023-06-11T14:16:25.704Z,23.37
2023-06-11T14:18:52.761Z,23.50
2023-06-11T14:21:19.473Z,23.61
2023-06-11T14:23:47.276Z,23.79
2023-06-11T14:26:19.303Z,23.86
2023-06-11T14:28:46.262Z,23.82
2023-06-11T14:31:13.188Z,23.83
2023-06-11T14:33:40.076Z,23.85
2023-06-11T14:36:07.900Z,23.93
2023-06-11T14:38:35.096Z,24.01
2023-06-11T14:41:02.125Z,24.10
2023-06-11T14:43:29.207Z,24.26
2023-06-11T14:45:56.246Z,24.39
2023-06-11T15:00:52.139Z,28.60
2023-06-11T15:03:20.216Z,29.35
2023-06-11T15:05:48.407Z,29.20
2023-06-11T15:08:16.538Z,28.81
2023-06-11T15:10:45.053Z,28.31
2023-06-11T15:13:14.284Z,27.83
2023-06-11T15:15:42.648Z,27.34
2023-06-11T15:18:12.799Z,26.92
2023-06-11T15:20:41.069Z,26.56
2023-06-11T15:23:11.193Z,26.27
2023-06-11T15:25:48.353Z,25.97
2023-06-11T15:28:17.168Z,25.60
2023-06-11T15:30:45.992Z,25.24
2023-06-11T15:33:14.546Z,24.97
2023-06-11T15:35:42.666Z,24.73
2023-06-11T15:38:11.133Z,24.45
2023-06-11T15:40:39.425Z,24.26
2023-06-11T15:43:07.899Z,24.13
2023-06-11T15:45:36.074Z,24.02
2023-06-11T15:48:04.326Z,23.95
2023-06-11T15:50:32.464Z,23.82
2023-06-11T15:53:00.641Z,23.70
2023-06-11T15:55:30.381Z,23.57
2023-06-11T15:57:58.528Z,23.43
2023-06-11T16:00:26.632Z,23.30
2023-06-11T16:02:54.975Z,23.14
2023-06-11T16:05:23.455Z,23.08
2023-06-11T16:07:51.672Z,23.00
2023-06-11T16:10:20.035Z,22.91
2023-06-11T16:12:48.633Z,22.81
2023-06-11T16:15:17.048Z,22.72
2023-06-11T16:17:53.004Z,22.66
2023-06-11T16:20:21.382Z,22.65
2023-06-11T16:22:49.646Z,22.64
2023-06-11T16:25:20.593Z,22.61
2023-06-11T16:30:37.534Z,22.58
2023-06-11T16:33:05.730Z,22.53
2023-06-11T16:35:34.060Z,22.47
2023-06-11T16:38:02.252Z,22.38
2023-06-11T16:40:30.310Z,22.31
2023-06-11T16:42:58.525Z,22.21
2023-06-11T16:45:27.864Z,22.07
2023-06-11T16:47:59.305Z,21.92
2023-06-11T16:50:28.602Z,21.82
2023-06-11T16:52:56.732Z,21.72
2023-06-11T16:55:24.931Z,21.66
2023-06-11T16:57:54.505Z,21.59
2023-06-11T17:00:24.632Z,21.51
2023-06-11T17:02:56.044Z,21.45
2023-06-11T17:05:25.978Z,21.40
2023-06-11T17:07:59.730Z,21.37
2023-06-11T17:10:31.024Z,21.31
2023-06-11T17:12:59.628Z,21.18
2023-06-11T17:15:31.232Z,20.95
2023-06-11T17:17:59.917Z,20.75
2023-06-11T17:20:30.580Z,20.52
2023-06-11T17:22:59.549Z,20.35
2023-06-11T17:25:27.894Z,20.09
2023-06-11T17:27:56.749Z,19.90
2023-06-11T17:30:25.136Z,19.75
2023-06-11T17:32:53.473Z,19.60
2023-06-11T17:35:21.747Z,19.52
2023-06-11T17:37:50.080Z,19.43
2023-06-11T17:40:18.967Z,19.30
2023-06-11T17:42:51.872Z,19.24
2023-06-11T17:45:20.454Z,19.15
2023-06-11T17:47:48.737Z,19.03
2023-06-11T17:50:17.479Z,18.96
2023-06-11T17:52:46.508Z,18.92
2023-06-11T17:55:15.572Z,18.86
2023-06-11T17:57:45.904Z,18.82
2023-06-11T18:00:15.108Z,18.81
2023-06-11T18:02:47.071Z,18.80
2023-06-11T18:05:16.058Z,18.76
2023-06-11T18:07:47.200Z,18.73
2023-06-11T18:10:17.469Z,18.78
2023-06-11T18:12:46.113Z,18.79
2023-06-11T18:15:31.260Z,18.79
2023-06-11T18:18:04.401Z,18.70
2023-06-11T18:20:34.252Z,18.68
2023-06-11T18:23:05.927Z,18.61
2023-06-11T18:25:34.119Z,18.60
2023-06-11T18:28:02.935Z,18.59
2023-06-11T18:30:31.502Z,18.63
2023-06-11T18:32:59.960Z,18.64
2023-06-11T18:35:33.411Z,18.64
2023-06-11T18:38:04.935Z,18.62
2023-06-11T18:40:51.932Z,18.60
2023-06-11T18:43:34.912Z,18.60
2023-06-11T18:46:14.156Z,18.58
2023-06-11T18:48:43.989Z,18.54
2023-06-11T18:51:23.382Z,18.52
2023-06-11T18:56:38.050Z,18.42
2023-06-11T18:59:09.246Z,18.41
2023-06-11T19:01:49.240Z,18.35
2023-06-11T19:04:32.080Z,18.31
2023-06-11T19:07:14.351Z,18.27
2023-06-11T19:12:29.912Z,18.21
2023-06-11T19:15:02.617Z,18.17
2023-06-11T19:17:49.824Z,18.14
2023-06-11T19:20:28.282Z,18.15
2023-06-11T19:26:02.123Z,18.23
2023-06-11T19:28:33.609Z,18.26
2023-06-11T19:31:02.085Z,18.26
2023-06-11T19:33:30.315Z,18.24
2023-06-11T19:36:46.052Z,18.20
2023-06-11T19:39:34.500Z,18.15
2023-06-11T19:42:06.521Z,18.13
2023-06-11T19:44:49.689Z,18.13
2023-06-11T19:50:36.552Z,18.09
2023-06-11T19:53:07.753Z,18.10
2023-06-11T19:55:40.227Z,18.06
2023-06-11T19:58:09.142Z,18.04
2023-06-11T20:00:45.602Z,18.03
2023-06-11T20:03:30.024Z,18.02
2023-06-11T20:06:07.668Z,18.00
2023-06-11T20:08:46.834Z,17.98
2023-06-11T20:11:22.363Z,17.96
2023-06-11T20:14:04.411Z,17.93
2023-06-11T20:16:32.817Z,17.89
2023-06-11T20:21:46.698Z,17.85
2023-06-11T20:24:29.482Z,17.86
2023-06-11T20:27:20.707Z,17.83
2023-06-11T20:29:54.592Z,17.83
2023-06-11T20:32:29.268Z,17.84
2023-06-11T20:35:14.311Z,17.86
2023-06-11T20:37:46.237Z,17.83
2023-06-11T20:40:14.706Z,17.77
2023-06-11T20:42:48.965Z,17.74
2023-06-11T20:45:26.092Z,17.70
2023-06-11T20:47:56.191Z,17.66
2023-06-11T20:50:26.918Z,17.61
2023-06-11T20:52:55.445Z,17.55
2023-06-11T20:55:23.827Z,17.44
2023-06-11T20:57:52.831Z,17.36
2023-06-11T21:00:25.594Z,17.27
2023-06-11T21:05:47.143Z,17.18
2023-06-11T21:08:33.040Z,17.19
2023-06-11T21:11:01.896Z,17.18
2023-06-11T21:13:39.940Z,17.19
2023-06-11T21:16:09.790Z,17.13
2023-06-11T21:18:43.353Z,17.14
2023-06-11T21:21:11.857Z,17.16
2023-06-11T21:23:40.258Z,17.16
2023-06-11T21:26:12.232Z,17.14
2023-06-11T21:28:40.935Z,17.10
2023-06-11T21:31:10.348Z,17.06
2023-06-11T21:33:38.906Z,17.07
2023-06-11T21:36:13.216Z,17.09
2023-06-11T21:38:44.006Z,17.08
2023-06-11T21:41:18.923Z,17.08
2023-06-11T21:43:53.748Z,17.06
2023-06-11T21:46:23.730Z,17.05
2023-06-11T21:48:58.507Z,17.05
2023-06-11T21:51:39.998Z,17.09
2023-06-11T21:54:32.770Z,17.15
2023-06-11T21:57:01.513Z,17.19
2023-06-11T21:59:32.893Z,17.24
2023-06-11T22:05:01.133Z,17.28
2023-06-11T22:07:40.785Z,17.31
2023-06-11T22:10:11.674Z,17.33
2023-06-11T22:12:48.178Z,17.32
2023-06-11T22:15:17.968Z,17.29
2023-06-11T22:20:54.371Z,17.21
2023-06-11T22:23:48.863Z,17.22
2023-06-11T22:26:25.637Z,17.22
2023-06-11T22:28:58.040Z,17.23
2023-06-11T22:31:26.230Z,17.25
2023-06-11T22:33:59.929Z,17.28
2023-06-11T22:36:39.457Z,17.30
2023-06-11T22:39:10.461Z,17.32
2023-06-11T22:41:47.240Z,17.30
2023-06-11T22:44:15.414Z,17.31
2023-06-11T22:47:19.551Z,17.33
2023-06-11T22:50:26.095Z,17.35
2023-06-11T22:53:00.895Z,17.37
2023-06-11T22:55:47.129Z,17.38
2023-06-11T22:58:15.299Z,17.39
2023-06-11T23:00:43.632Z,17.39
2023-06-11T23:03:12.967Z,17.35
2023-06-11T23:06:02.839Z,17.31
2023-06-11T23:08:31.542Z,17.28
2023-06-11T23:11:22.089Z,17.28
2023-06-11T23:13:51.224Z,17.30
2023-06-11T23:16:43.124Z,17.27
2023-06-11T23:19:14.971Z,17.28
2023-06-11T23:21:43.929Z,17.27
2023-06-11T23:24:14.118Z,17.23
2023-06-11T23:26:45.933Z,17.19
2023-06-11T23:32:34.415Z,17.22
2023-06-11T23:38:04.575Z,17.26
2023-06-11T23:40:57.297Z,17.29
2023-06-11T23:43:25.846Z,17.31
2023-06-11T23:46:04.268Z,17.34
2023-06-11T23:48:42.234Z,17.36
2023-06-11T23:51:12.965Z,17.38
2023-06-11T23:53:41.885Z,17.37
2023-06-11T23:56:13.183Z,17.38
2023-06-11T23:58:41.643Z,17.38
